Time;durP1;ratioP1;P1;durP2;ratioP2;P2;SDS_P1;SDS_P2;PMS_P1;PMS_P2;Temp;Humidity;BMP_temperature;BMP_pressure;BME280_temperature;BME280_humidity;BME280_pressure;Samples;Min_cycle;Max_cycle;Signal;HPM_P1;HPM_P2
2022/11/11 00:00:11;;;;;;;35.30;25.48;;;;;;;9.30;86.50;99864.50;5042436;28;20359;-67
2022/11/11 00:02:37;;;;;;;36.75;24.58;;;;;;;9.36;86.62;99854.97;5024844;28;20218;-67
2022/11/11 00:05:03;;;;;;;39.42;26.05;;;;;;;9.36;87.29;99857.56;5035772;28;20025;-67
2022/11/11 00:07:29;;;;;;;39.47;26.15;;;;;;;9.32;86.29;99839.50;5034366;28;20376;-66
2022/11/11 00:09:55;;;;;;;40.30;26.65;;;;;;;9.26;87.60;99855.13;5041952;28;20030;-66
2022/11/11 00:12:20;;;;;;;42.38;26.02;;;;;;;9.29;86.99;99859.38;5044561;28;20072;-66
2022/11/11 00:14:47;;;;;;;42.05;26.02;;;;;;;9.17;87.07;99865.56;5027434;28;20037;-66
2022/11/11 00:25:26;;;;;;;42.53;26.42;;;;;;;9.21;87.80;99859.47;5058555;28;20049;-66
2022/11/11 00:27:52;;;;;;;42.42;26.30;;;;;;;9.04;87.67;99815.78;5043114;28;20060;-66
2022/11/11 00:30:18;;;;;;;41.85;26.10;;;;;;;9.14;88.32;99840.59;5026347;28;20332;-66
2022/11/11 00:32:44;;;;;;;40.75;25.85;;;;;;;9.25;87.53;99849.94;5044430;28;20036;-66
2022/11/11 00:37:53;;;;;;;40.58;26.13;;;;;;;9.28;87.74;99848.19;5034342;28;20099;-66
2022/11/11 00:40:19;;;;;;;36.53;24.70;;;;;;;9.28;88.05;99848.19;5034530;28;20041;-66
2022/11/11 00:42:45;;;;;;;37.13;25.38;;;;;;;9.15;88.29;99844.91;5037590;28;20072;-65
2022/11/11 00:45:11;;;;;;;32.60;23.48;;;;;;;9.24;88.93;99845.66;5043474;28;20029;-66
2022/11/11 00:53:16;;;;;;;39.78;24.73;;;;;;;9.21;89.41;99825.88;5032049;28;20210;-66
2022/11/11 00:55:42;;;;;;;33.55;23.05;;;;;;;9.41;88.88;99837.69;5035432;28;20022;-66
2022/11/11 00:58:07;;;;;;;38.20;24.48;;;;;;;9.40;88.25;99836.81;5040531;28;20068;-66
2022/11/11 01:00:33;;;;;;;34.22;23.10;;;;;;;9.43;88.61;99838.50;5025725;28;20382;-66
2022/11/11 01:02:58;;;;;;;38.47;24.25;;;;;;;9.40;89.33;99834.22;5044899;28;20045;-66
2022/11/11 01:05:25;;;;;;;36.55;23.85;;;;;;;9.32;88.92;99833.50;5029426;28;20038;-67
2022/11/11 01:07:51;;;;;;;31.50;22.38;;;;;;;9.17;89.40;99823.38;5035839;28;20040;-66
2022/11/11 01:10:37;;;;;;;28.80;20.70;;;;;;;9.32;89.51;99831.75;5044982;28;20021;-66
2022/11/11 01:13:14;;;;;;;33.97;22.08;;;;;;;9.37;89.01;99829.09;5042679;28;20140;-66
2022/11/11 01:15:42;;;;;;;33.85;21.63;;;;;;;9.38;89.75;99835.13;5026043;28;20029;-66
2022/11/11 01:18:09;;;;;;;31.85;21.95;;;;;;;9.25;90.15;99824.97;5044778;28;20040;-66
2022/11/11 01:20:36;;;;;;;34.58;23.00;;;;;;;9.19;90.07;99839.69;5028063;28;20236;-67
2022/11/11 01:23:07;;;;;;;31.15;21.60;;;;;;;9.29;90.54;99842.16;5042773;28;20028;-67
2022/11/11 01:25:34;;;;;;;32.22;22.10;;;;;;;9.22;90.02;99837.06;5056349;28;20318;-66
2022/11/11 01:28:00;;;;;;;32.78;22.60;;;;;;;9.03;91.75;99828.72;5041245;28;20034;-67
2022/11/11 01:30:26;;;;;;;31.23;22.02;;;;;;;9.26;90.87;99836.16;5025099;28;20030;-67
2022/11/11 01:32:52;;;;;;;31.67;21.30;;;;;;;9.22;90.40;99840.53;5043807;28;20040;-67
2022/11/11 01:35:17;;;;;;;35.47;22.60;;;;;;;9.11;91.15;99819.97;5029545;28;20376;-67
2022/11/11 01:37:43;;;;;;;32.80;22.23;;;;;;;9.26;91.72;99836.16;5044132;28;20030;-67
2022/11/11 01:40:09;;;;;;;31.33;22.23;;;;;;;9.31;90.90;99842.13;5039894;28;20222;-67
2022/11/11 01:43:12;;;;;;;31.60;22.05;;;;;;;9.30;90.64;99832.66;5024935;28;20030;-67
2022/11/11 01:45:58;;;;;;;26.70;19.50;;;;;;;9.29;91.47;99825.78;5044103;28;20055;-67
2022/11/11 01:51:45;;;;;;;30.83;21.25;;;;;;;9.23;91.67;99839.63;5024853;28;20037;-67
2022/11/11 01:54:25;;;;;;;31.23;21.13;;;;;;;9.20;92.04;99837.09;5024533;28;20263;-66
2022/11/11 01:56:58;;;;;;;30.73;21.00;;;;;;;9.25;91.18;99839.59;5043461;28;20021;-66
2022/11/11 01:59:25;;;;;;;28.83;20.10;;;;;;;9.21;91.09;99843.13;5029655;28;20029;-67
2022/11/11 02:01:50;;;;;;;31.50;21.15;;;;;;;9.11;91.74;99842.41;5034681;28;20029;-67
2022/11/11 02:07:07;;;;;;;30.00;21.35;;;;;;;9.06;92.81;99839.84;5028035;28;20025;-66
2022/11/11 02:09:34;;;;;;;30.27;20.90;;;;;;;9.00;92.97;99814.09;5044071;28;20060;-67
2022/11/11 02:14:54;;;;;;;30.58;20.00;;;;;;;9.11;92.43;99816.56;5024665;28;20029;-66
2022/11/11 02:17:20;;;;;;;29.27;19.60;;;;;;;9.14;93.01;99830.28;5024062;28;20029;-66
2022/11/11 02:19:51;;;;;;;31.48;20.58;;;;;;;9.09;93.15;99839.81;5033646;28;20088;-66
2022/11/11 02:22:37;;;;;;;27.13;19.85;;;;;;;9.02;93.11;99827.00;5038730;28;20026;-66
2022/11/11 02:25:06;;;;;;;27.08;18.60;;;;;;;9.01;93.02;99820.97;5059741;28;20265;-67
2022/11/11 02:27:36;;;;;;;26.52;17.75;;;;;;;8.97;92.77;99819.31;5043623;28;20048;-66
2022/11/11 02:30:04;;;;;;;26.63;17.63;;;;;;;8.86;93.93;99808.25;5023736;28;20093;-67
2022/11/11 02:32:30;;;;;;;22.67;16.38;;;;;;;9.02;93.79;99839.91;5039018;28;20120;-66
2022/11/11 02:34:56;;;;;;;22.95;15.95;;;;;;;8.88;93.68;99834.91;5032915;28;20034;-67
2022/11/11 02:37:24;;;;;;;22.45;15.13;;;;;;;8.71;94.31;99817.91;5033842;28;20037;-68
2022/11/11 02:39:56;;;;;;;20.38;14.80;;;;;;;8.95;94.48;99823.63;5025533;28;20038;-67
2022/11/11 02:42:23;;;;;;;22.67;15.77;;;;;;;8.99;93.15;99822.72;5043056;28;20095;-68
2022/11/11 02:44:49;;;;;;;23.55;16.05;;;;;;;8.93;94.10;99831.41;5025915;28;20042;-67
2022/11/11 02:47:15;;;;;;;21.13;15.55;;;;;;;9.00;93.88;99826.19;5036626;28;20048;-68
2022/11/11 02:49:41;;;;;;;19.02;15.13;;;;;;;9.04;93.34;99831.28;5035091;28;20038;-67
2022/11/11 02:52:06;;;;;;;20.13;14.63;;;;;;;9.07;93.19;99838.97;5023714;28;20029;-67
2022/11/11 02:54:32;;;;;;;17.52;13.10;;;;;;;9.10;93.22;99845.84;5022846;28;20092;-65
2022/11/11 02:57:07;;;;;;;21.98;14.57;;;;;;;9.13;93.18;99835.47;5042499;28;20029;-68
2022/11/11 02:59:36;;;;;;;20.05;13.82;;;;;;;9.03;93.82;99829.56;5043553;28;20056;-67
2022/11/11 03:02:03;;;;;;;17.27;13.23;;;;;;;9.09;93.36;99834.66;5031898;28;20030;-67
2022/11/11 03:04:29;;;;;;;18.10;13.23;;;;;;;9.02;94.10;99838.19;5025977;28;20089;-67
2022/11/11 03:06:54;;;;;;;19.80;13.15;;;;;;;9.02;93.89;99829.56;5025110;28;20073;-68
2022/11/11 03:09:20;;;;;;;16.23;12.77;;;;;;;9.07;93.35;99826.06;5043522;28;20032;-67
2022/11/11 03:11:45;;;;;;;18.38;13.75;;;;;;;9.07;93.86;99827.81;5026089;28;20203;-67
2022/11/11 03:14:11;;;;;;;18.73;13.52;;;;;;;9.08;93.29;99827.78;5022000;28;20026;-67
2022/11/11 03:19:21;;;;;;;17.30;12.20;;;;;;;9.20;93.54;99829.34;5037652;28;20029;-67
2022/11/11 03:21:47;;;;;;;16.85;12.70;;;;;;;9.27;93.35;99837.88;5024457;28;20040;-66
2022/11/11 03:24:12;;;;;;;15.73;12.73;;;;;;;9.21;93.12;99832.78;5059007;28;20037;-66
2022/11/11 03:26:38;;;;;;;17.08;12.68;;;;;;;9.12;93.63;99834.63;5046363;28;20044;-67
2022/11/11 03:29:04;;;;;;;18.17;13.10;;;;;;;9.06;93.33;99839.84;5042487;28;20037;-68
2022/11/11 03:31:29;;;;;;;17.65;12.70;;;;;;;9.13;93.32;99845.78;5036259;28;20034;-68
2022/11/11 03:34:16;;;;;;;17.02;11.85;;;;;;;9.19;93.13;99840.53;5039676;28;20029;-67
2022/11/11 03:39:25;;;;;;;18.30;12.63;;;;;;;9.15;93.32;99834.56;5023154;28;20365;-67
2022/11/11 03:41:50;;;;;;;15.52;11.02;;;;;;;9.11;93.95;99837.22;5023056;28;20030;-67
2022/11/11 03:44:16;;;;;;;14.13;11.55;;;;;;;9.04;94.34;99836.44;5035338;28;20045;-66
2022/11/11 03:46:42;;;;;;;13.30;10.77;;;;;;;9.12;94.38;99838.91;5035365;28;20045;-67
2022/11/11 03:49:07;;;;;;;16.02;11.63;;;;;;;9.13;93.79;99838.88;5029759;28;20042;-68
2022/11/11 03:51:33;;;;;;;15.05;11.30;;;;;;;9.20;93.73;99838.81;5025987;28;20037;-67
2022/11/11 03:53:58;;;;;;;13.65;9.80;;;;;;;9.22;93.24;99839.66;5045495;28;20030;-68
2022/11/11 03:56:24;;;;;;;14.10;10.48;;;;;;;9.08;93.44;99842.44;5033135;28;20026;-67
2022/11/11 03:58:49;;;;;;;13.57;10.55;;;;;;;9.13;94.06;99840.63;5041004;28;20033;-66
2022/11/11 04:10:21;;;;;;;14.70;10.77;;;;;;;9.17;93.97;99837.13;5044723;28;20037;-66
2022/11/11 04:12:13;;;;;;;14.27;10.30;;;;;;;9.12;94.66;99837.19;5036336;28;20104;-66
2022/11/11 04:17:23;;;;;;;10.43;9.30;;;;;;;9.12;94.31;99850.13;5039872;28;20364;-66
2022/11/11 04:22:39;;;;;;;12.13;9.90;;;;;;;8.95;94.47;99845.16;5031159;28;20036;-66
2022/11/11 04:29:27;;;;;;;14.82;9.82;;;;;;;8.99;94.33;99858.88;5045580;28;20048;-66
2022/11/11 04:30:34;;;;;;;12.80;9.65;;;;;;;9.07;93.75;99857.06;5030724;28;20033;-66
2022/11/11 04:33:00;;;;;;;14.30;9.57;;;;;;;9.10;94.28;99867.34;5026456;28;20210;-67
2022/11/11 04:35:25;;;;;;;12.05;9.20;;;;;;;8.98;93.60;99868.38;5026528;28;20029;-67
2022/11/11 04:41:02;;;;;;;11.80;9.52;;;;;;;8.97;93.63;99850.31;5045153;28;20026;-68
2022/11/11 04:43:20;;;;;;;11.73;9.98;;;;;;;9.07;92.83;99869.97;5031065;28;20096;-67
2022/11/11 04:45:46;;;;;;;13.13;9.75;;;;;;;8.96;93.12;99862.38;5046387;28;20029;-68
2022/11/11 04:48:12;;;;;;;11.70;9.45;;;;;;;9.08;93.28;99863.94;5044679;28;20036;-67
2022/11/11 04:50:42;;;;;;;13.93;10.07;;;;;;;9.12;93.20;99870.78;5045053;28;20211;-67
2022/11/11 04:53:10;;;;;;;12.85;10.57;;;;;;;8.94;92.30;99866.69;5026453;28;20310;-66
2022/11/11 04:58:25;;;;;;;12.23;9.80;;;;;;;9.04;92.12;99888.09;5040081;28;20052;-67
2022/11/11 05:00:50;;;;;;;12.93;9.88;;;;;;;9.04;91.92;99884.69;5060740;28;20029;-67
2022/11/11 05:03:20;;;;;;;11.50;9.35;;;;;;;9.14;91.91;99881.09;5045150;28;20073;-66
2022/11/11 05:11:19;;;;;;;9.90;8.73;;;;;;;9.19;92.37;99883.63;5032995;28;20041;-66
2022/11/11 05:22:22;;;;;;;11.07;8.63;;;;;;;8.97;92.22;99860.63;5025523;28;20283;-67
2022/11/11 05:27:49;;;;;;;11.32;8.30;;;;;;;9.07;92.37;99862.22;5056917;28;20025;-67
2022/11/11 05:30:16;;;;;;;10.18;8.25;;;;;;;9.06;91.79;99870.00;5032874;28;20053;-66
2022/11/11 05:32:42;;;;;;;12.13;8.85;;;;;;;9.20;91.61;99888.78;5026191;28;20025;-67
2022/11/11 05:35:09;;;;;;;9.40;7.80;;;;;;;9.24;91.84;99887.00;5034658;28;20025;-66
2022/11/11 05:37:35;;;;;;;10.32;8.48;;;;;;;9.00;91.86;99849.41;5044621;28;20336;-67
2022/11/11 05:40:00;;;;;;;10.40;8.60;;;;;;;9.24;91.25;99889.59;5044744;28;20025;-67
2022/11/11 05:42:26;;;;;;;9.57;8.30;;;;;;;9.09;91.86;99878.59;5045074;28;20021;-66
2022/11/11 05:44:52;;;;;;;10.60;7.13;;;;;;;9.20;91.25;99888.78;5028506;28;20046;-66
2022/11/11 05:47:18;;;;;;;9.07;7.40;;;;;;;9.19;91.54;99893.97;5036492;28;20033;-67
2022/11/11 05:49:43;;;;;;;11.82;8.27;;;;;;;9.10;91.36;99889.75;5037527;28;20107;-69
2022/11/11 05:52:11;;;;;;;10.52;8.13;;;;;;;9.08;91.08;99884.63;5028426;28;20025;-67
2022/11/11 05:54:36;;;;;;;11.15;8.32;;;;;;;9.17;91.48;99888.81;5024681;28;20025;-67
2022/11/11 05:57:03;;;;;;;10.73;7.68;;;;;;;9.08;90.88;99888.94;5023620;28;20148;-67
2022/11/11 05:59:29;;;;;;;8.55;7.50;;;;;;;9.17;91.02;99903.47;5030093;28;20036;-67
2022/11/11 06:01:54;;;;;;;9.35;7.47;;;;;;;9.07;90.96;99894.97;5024521;28;20029;-66
2022/11/11 06:04:20;;;;;;;11.02;7.53;;;;;;;9.15;91.35;99891.41;5028183;28;20025;-68
2022/11/11 06:06:45;;;;;;;9.48;8.00;;;;;;;9.04;91.03;99895.00;5043504;28;20057;-67
2022/11/11 06:09:11;;;;;;;10.10;7.28;;;;;;;9.13;90.97;99905.22;5037724;28;20197;-67
2022/11/11 06:11:37;;;;;;;10.73;7.57;;;;;;;9.27;90.36;99908.50;5029767;28;20037;-67
2022/11/11 06:14:03;;;;;;;11.73;7.50;;;;;;;9.13;90.29;99894.88;5033831;28;20036;-68
2022/11/11 06:16:29;;;;;;;6.63;5.93;;;;;;;9.19;90.59;99907.72;5038484;28;20311;-68
2022/11/11 06:18:54;;;;;;;9.52;6.35;;;;;;;9.24;90.48;99900.78;5024566;28;20076;-67
2022/11/11 06:21:20;;;;;;;8.55;6.47;;;;;;;9.29;89.87;99918.81;5031244;28;20344;-66
2022/11/11 06:23:46;;;;;;;7.10;6.32;;;;;;;9.22;89.86;99912.88;5053452;28;20289;-67
2022/11/11 06:26:12;;;;;;;7.60;6.05;;;;;;;9.13;90.02;99912.97;5052675;28;20021;-67
2022/11/11 06:28:43;;;;;;;10.25;6.93;;;;;;;9.05;90.58;99915.66;5037034;28;20437;-67
2022/11/11 06:31:12;;;;;;;7.03;5.60;;;;;;;9.25;90.96;99927.47;5025392;28;20034;-66
2022/11/11 06:33:38;;;;;;;7.38;6.47;;;;;;;9.28;90.21;99924.88;5043018;28;20033;-66
2022/11/11 06:36:05;;;;;;;8.85;6.53;;;;;;;9.20;89.85;99932.69;5031067;28;20210;-67
2022/11/11 06:38:31;;;;;;;8.20;6.50;;;;;;;9.09;90.89;99927.66;5043419;28;20049;-67
2022/11/11 06:40:57;;;;;;;7.13;6.43;;;;;;;9.20;90.93;99919.78;5036810;28;20072;-67
2022/11/11 06:43:23;;;;;;;7.22;5.95;;;;;;;9.26;89.93;99926.59;5037172;28;20042;-67
2022/11/11 06:45:50;;;;;;;7.70;6.22;;;;;;;9.35;90.61;99931.66;5036548;28;20040;-67
2022/11/11 06:48:18;;;;;;;6.40;5.75;;;;;;;9.28;89.77;99924.88;5043465;28;20238;-67
2022/11/11 06:50:44;;;;;;;6.78;5.93;;;;;;;9.29;90.24;99927.44;5028307;28;20026;-68
2022/11/11 06:53:12;;;;;;;7.65;5.82;;;;;;;9.38;89.63;99931.63;5024243;28;20041;-68
2022/11/11 06:55:37;;;;;;;8.35;6.13;;;;;;;9.30;89.82;99934.28;5029435;28;20375;-67
2022/11/11 06:58:08;;;;;;;10.05;6.22;;;;;;;9.26;90.27;99934.34;5042055;28;20044;-67
2022/11/11 07:00:34;;;;;;;7.15;6.00;;;;;;;9.35;89.92;99931.66;5031559;28;20013;-67
2022/11/11 07:03:01;;;;;;;6.32;5.38;;;;;;;9.24;89.95;99930.94;5032778;28;20222;-67
2022/11/11 07:05:27;;;;;;;8.60;5.90;;;;;;;9.25;89.70;99937.81;5034636;28;20037;-67
2022/11/11 07:07:52;;;;;;;7.38;6.63;;;;;;;9.27;89.70;99934.34;5043104;28;20033;-68
2022/11/11 07:10:18;;;;;;;7.63;6.38;;;;;;;9.15;89.96;99937.09;5040040;28;20048;-67
2022/11/11 07:12:44;;;;;;;6.63;5.95;;;;;;;9.22;90.00;99940.44;5039588;28;20037;-67
2022/11/11 07:15:10;;;;;;;7.97;5.97;;;;;;;9.32;89.57;99939.47;5043090;28;20048;-66
2022/11/11 07:17:35;;;;;;;6.90;6.20;;;;;;;9.36;89.89;99945.44;5036200;28;20198;-66
2022/11/11 07:20:01;;;;;;;7.72;6.10;;;;;;;9.49;88.86;99942.69;5041965;28;20052;-66
2022/11/11 07:22:27;;;;;;;9.30;6.47;;;;;;;9.39;89.13;99935.94;5039697;28;20029;-67
2022/11/11 07:24:52;;;;;;;8.65;6.47;;;;;;;9.45;88.91;99930.66;5063300;28;20041;-67
2022/11/11 07:27:18;;;;;;;8.10;6.65;;;;;;;9.52;89.54;99940.94;5031049;28;20033;-66
2022/11/11 07:29:43;;;;;;;7.75;6.93;;;;;;;9.57;88.93;99937.41;5034002;28;20029;-65
2022/11/11 07:32:09;;;;;;;7.68;6.45;;;;;;;9.52;88.77;99933.16;5038058;28;20032;-66
2022/11/11 07:34:35;;;;;;;8.70;6.60;;;;;;;9.56;88.54;99938.28;5027951;28;20025;-67
2022/11/11 07:37:00;;;;;;;8.30;7.07;;;;;;;9.59;88.46;99948.59;5042579;28;20241;-67
2022/11/11 07:39:26;;;;;;;8.98;7.15;;;;;;;9.59;88.16;99951.19;5031504;28;20029;-67
2022/11/11 07:41:52;;;;;;;10.68;6.93;;;;;;;9.57;88.76;99952.06;5029281;28;20026;-66
2022/11/11 07:44:17;;;;;;;8.27;7.15;;;;;;;9.57;88.77;99949.50;5036165;28;20091;-66
2022/11/11 07:46:43;;;;;;;8.88;6.88;;;;;;;9.48;89.11;99956.47;5035142;28;20225;-67
2022/11/11 07:49:08;;;;;;;9.07;7.32;;;;;;;9.52;88.57;99965.06;5034281;28;20056;-66
2022/11/11 07:51:34;;;;;;;11.13;6.85;;;;;;;9.64;88.71;99966.63;5039548;28;20045;-66
2022/11/11 07:53:59;;;;;;;8.75;7.50;;;;;;;9.64;87.79;99964.88;5042348;28;20061;-66
2022/11/11 07:56:25;;;;;;;9.52;7.05;;;;;;;9.72;88.14;99959.63;5030425;28;20064;-66
2022/11/11 07:58:51;;;;;;;11.40;7.63;;;;;;;9.80;88.22;99957.78;5035586;28;20147;-66
2022/11/11 08:01:16;;;;;;;9.07;7.28;;;;;;;9.82;87.72;99976.72;5041957;28;20088;-67
2022/11/11 08:03:51;;;;;;;9.40;6.97;;;;;;;9.80;88.55;99972.44;5027054;28;20040;-67
2022/11/11 08:06:21;;;;;;;10.52;7.25;;;;;;;9.71;87.88;99972.59;5035679;28;20037;-66
2022/11/11 08:08:47;;;;;;;9.93;7.82;;;;;;;9.76;88.11;99971.66;5042229;28;20293;-67
2022/11/11 08:11:14;;;;;;;11.98;7.53;;;;;;;9.68;88.33;99979.50;5041947;28;20306;-66
2022/11/11 08:13:40;;;;;;;9.52;7.35;;;;;;;9.76;87.86;99973.38;5042124;28;20113;-66
2022/11/11 08:16:11;;;;;;;8.98;6.82;;;;;;;9.69;88.28;99982.97;5036852;28;20384;-67
2022/11/11 08:18:36;;;;;;;9.40;7.35;;;;;;;9.34;90.07;99968.72;5037101;28;20029;-67
2022/11/11 08:21:04;;;;;;;10.35;7.95;;;;;;;9.44;89.00;99947.06;5049479;28;20075;-67
2022/11/11 08:23:33;;;;;;;11.48;8.05;;;;;;;9.56;89.79;99956.38;5048884;28;20029;-68
2022/11/11 08:26:00;;;;;;;8.48;7.55;;;;;;;9.64;88.77;99959.72;5046456;28;20033;-68
2022/11/11 08:28:31;;;;;;;10.32;7.60;;;;;;;9.66;88.49;99960.56;5038879;28;20026;-67
2022/11/11 08:30:58;;;;;;;10.85;8.27;;;;;;;9.71;88.57;99950.16;5022626;28;20072;-67
2022/11/11 08:33:24;;;;;;;11.07;8.32;;;;;;;9.61;88.20;99956.34;5043500;28;20025;-67
2022/11/11 08:35:52;;;;;;;11.15;7.93;;;;;;;9.65;88.76;99948.50;5034729;28;20040;-67
2022/11/11 08:38:18;;;;;;;10.95;8.45;;;;;;;9.73;88.67;99950.13;5045799;28;20043;-67
2022/11/11 08:40:43;;;;;;;10.95;8.38;;;;;;;9.61;88.61;99943.41;5045483;28;20025;-66
2022/11/11 08:43:09;;;;;;;12.30;8.25;;;;;;;9.61;88.72;99946.84;5039233;28;20535;-67
2022/11/11 08:45:35;;;;;;;11.90;8.43;;;;;;;9.59;88.64;99945.13;5026060;28;20053;-67
2022/11/11 08:48:00;;;;;;;10.77;8.50;;;;;;;9.66;88.64;99949.34;5038995;28;20034;-67
2022/11/11 08:50:26;;;;;;;14.68;8.93;;;;;;;9.68;88.20;99948.47;5034364;28;20224;-66
2022/11/11 08:52:51;;;;;;;11.82;8.55;;;;;;;9.70;88.49;99943.25;5036877;28;20033;-67
2022/11/11 08:55:18;;;;;;;11.35;9.00;;;;;;;9.72;88.77;99949.28;5037848;28;20033;-67
2022/11/11 08:57:44;;;;;;;13.00;9.35;;;;;;;9.68;88.85;99942.44;5025596;28;20030;-67
2022/11/11 09:00:11;;;;;;;13.48;9.45;;;;;;;9.64;88.88;99945.94;5043009;28;20029;-66
2022/11/11 09:02:37;;;;;;;12.00;9.05;;;;;;;9.48;89.85;99940.13;5051050;28;20025;-67
2022/11/11 09:05:05;;;;;;;11.20;9.65;;;;;;;9.51;89.17;99934.91;5052563;28;20052;-67
2022/11/11 09:07:30;;;;;;;11.40;8.70;;;;;;;9.65;88.89;99947.66;5057168;28;20060;-67
2022/11/11 09:09:56;;;;;;;10.60;9.07;;;;;;;9.64;89.04;99946.78;5052021;28;20028;-67
2022/11/11 09:12:21;;;;;;;12.00;9.13;;;;;;;9.54;89.42;99946.94;5052889;28;20032;-66
2022/11/11 09:14:48;;;;;;;10.02;7.93;;;;;;;9.53;88.77;99950.41;5049097;28;20028;-67
2022/11/11 09:17:15;;;;;;;11.70;8.25;;;;;;;9.61;88.41;99961.50;5050161;28;20548;-67
2022/11/11 09:19:41;;;;;;;12.73;9.00;;;;;;;9.59;89.01;99951.19;5050781;28;20132;-67
2022/11/11 09:22:06;;;;;;;9.95;7.80;;;;;;;9.59;88.81;99952.91;5055236;28;20029;-67
2022/11/11 09:24:32;;;;;;;11.00;7.57;;;;;;;9.58;88.97;99951.22;5048161;28;20370;-67
2022/11/11 09:26:58;;;;;;;9.40;7.10;;;;;;;9.51;89.03;99953.00;5048085;28;20321;-66
2022/11/11 09:29:23;;;;;;;11.75;7.65;;;;;;;9.68;88.08;99960.53;5052383;28;20021;-66
2022/11/11 09:31:49;;;;;;;8.88;7.20;;;;;;;9.70;88.46;99958.78;5052891;28;20041;-67
2022/11/11 09:34:15;;;;;;;8.75;6.65;;;;;;;9.63;88.24;99960.63;5054663;28;20052;-67
2022/11/11 09:36:41;;;;;;;8.07;6.80;;;;;;;9.59;88.67;99966.69;5051681;28;20032;-67
2022/11/11 09:39:07;;;;;;;11.00;6.88;;;;;;;9.58;88.42;99970.16;5051574;28;20051;-66
2022/11/11 09:42:10;;;;;;;10.20;6.68;;;;;;;9.60;87.79;99970.97;5031530;28;20034;-67
2022/11/11 09:44:44;;;;;;;12.00;6.50;;;;;;;9.67;87.92;99969.16;5026033;28;20096;-67
2022/11/11 09:47:34;;;;;;;8.05;6.65;;;;;;;9.60;87.67;99968.38;5047114;28;20379;-67
2022/11/11 09:50:10;;;;;;;9.38;7.13;;;;;;;9.64;87.80;99966.63;5050561;28;20060;-67
2022/11/11 09:53:00;;;;;;;9.27;6.97;;;;;;;9.70;87.19;99978.63;5037172;28;20157;-67
2022/11/11 09:55:35;;;;;;;11.18;6.53;;;;;;;9.67;87.61;99982.94;5031280;28;20046;-67
2022/11/11 09:58:07;;;;;;;7.50;6.22;;;;;;;9.58;87.74;99962.41;5032331;28;20379;-67
2022/11/11 10:00:37;;;;;;;8.20;5.88;;;;;;;9.56;87.91;99978.78;5038955;28;20036;-67
2022/11/11 10:03:15;;;;;;;8.68;6.20;;;;;;;9.71;87.35;99957.06;5032226;28;20044;-67
2022/11/11 10:05:51;;;;;;;8.07;6.50;;;;;;;9.84;87.39;99968.94;5048332;28;20096;-67
2022/11/11 10:08:50;;;;;;;9.30;6.70;;;;;;;9.91;86.76;99970.56;5053731;28;20135;-67
2022/11/11 10:11:51;;;;;;;9.13;6.05;;;;;;;9.96;86.38;99978.25;5049247;28;20048;-67
2022/11/11 10:14:17;;;;;;;7.90;5.78;;;;;;;9.81;87.15;99980.19;5043386;28;20071;-68
2022/11/11 10:16:52;;;;;;;7.25;6.13;;;;;;;9.78;87.25;99971.63;5054469;28;20067;-67
2022/11/11 10:19:51;;;;;;;6.40;5.53;;;;;;;9.75;86.92;99971.63;5048877;28;20025;-66
2022/11/11 10:22:32;;;;;;;8.18;6.65;;;;;;;9.72;87.49;99982.91;5053914;28;20041;-67
2022/11/11 10:25:05;;;;;;;8.75;6.70;;;;;;;9.69;87.66;99972.63;5050750;28;20066;-68
2022/11/11 10:27:32;;;;;;;7.93;6.57;;;;;;;9.73;86.85;99982.00;5052531;28;20084;-67
2022/11/11 10:30:06;;;;;;;7.45;6.07;;;;;;;9.71;87.61;99986.38;5054974;28;20020;-66
2022/11/11 10:32:33;;;;;;;5.88;5.25;;;;;;;9.77;86.75;99985.44;5049916;28;20203;-67
2022/11/11 10:35:14;;;;;;;7.78;6.05;;;;;;;9.72;87.32;99990.66;5030541;28;20022;-67
2022/11/11 10:37:41;;;;;;;9.50;7.03;;;;;;;9.84;87.05;100010.34;5043493;28;20041;-67
2022/11/11 10:40:16;;;;;;;9.93;6.40;;;;;;;9.81;87.76;100013.81;5043247;28;20584;-67
2022/11/11 10:42:42;;;;;;;8.77;6.75;;;;;;;9.80;87.51;100004.34;5023507;28;20333;-67
2022/11/11 10:45:20;;;;;;;8.27;6.88;;;;;;;9.79;87.57;100014.69;5043475;28;20033;-67
2022/11/11 10:47:54;;;;;;;9.80;7.13;;;;;;;9.82;87.44;100014.69;5046014;28;20029;-67
2022/11/11 10:50:23;;;;;;;8.98;6.88;;;;;;;9.79;87.51;100023.34;5052015;28;20226;-67
2022/11/11 10:53:16;;;;;;;8.55;7.13;;;;;;;9.87;87.28;100022.38;5052590;28;20057;-68
2022/11/11 10:55:45;;;;;;;10.02;6.40;;;;;;;9.90;86.94;100014.56;5049980;28;20034;-67
2022/11/11 10:58:16;;;;;;;7.10;5.75;;;;;;;9.83;86.95;100017.25;5052558;28;20055;-67
2022/11/11 11:00:45;;;;;;;6.95;5.72;;;;;;;9.67;88.06;100001.03;5053477;28;20233;-68
2022/11/11 11:03:29;;;;;;;8.70;5.50;;;;;;;9.82;87.18;100012.94;5034595;28;20265;-67
2022/11/11 11:06:02;;;;;;;7.80;5.82;;;;;;;9.81;87.99;100002.63;5048581;28;20110;-67
2022/11/11 11:09:09;;;;;;;8.57;6.25;;;;;;;9.77;88.11;100013.88;5051600;28;20029;-68
2022/11/11 11:11:40;;;;;;;9.63;5.57;;;;;;;9.81;87.69;100016.41;5051242;28;20229;-67
2022/11/11 11:14:14;;;;;;;10.25;5.72;;;;;;;9.88;87.82;100011.16;5047335;28;20055;-67
2022/11/11 11:16:50;;;;;;;7.35;5.93;;;;;;;9.97;87.59;100026.53;5049664;28;20222;-68
2022/11/11 11:19:26;;;;;;;8.27;6.70;;;;;;;9.95;87.89;100030.91;5053701;28;20033;-66
2022/11/11 11:21:57;;;;;;;6.75;5.70;;;;;;;9.93;88.20;100030.06;5051043;28;20104;-67
2022/11/11 11:24:22;;;;;;;7.40;5.97;;;;;;;9.82;88.68;100038.81;5048877;28;20052;-67
2022/11/11 11:26:51;;;;;;;8.65;6.53;;;;;;;9.52;88.71;100014.19;5053187;28;20104;-67
2022/11/11 11:29:32;;;;;;;8.68;6.28;;;;;;;9.83;88.95;100043.13;5053145;28;20029;-67
2022/11/11 11:32:12;;;;;;;9.40;6.45;;;;;;;9.85;88.67;100033.59;5052207;28;20052;-66
2022/11/11 11:34:49;;;;;;;7.13;5.95;;;;;;;9.79;88.55;100022.47;5051667;28;20056;-67
2022/11/11 11:37:16;;;;;;;7.45;6.05;;;;;;;9.80;88.60;100034.53;5049995;28;20107;-67
2022/11/11 11:39:42;;;;;;;8.00;6.43;;;;;;;9.70;89.20;100038.94;5052876;28;20108;-66
2022/11/11 11:42:25;;;;;;;7.75;6.00;;;;;;;9.73;88.86;100041.50;5051043;28;20029;-67
2022/11/11 11:44:51;;;;;;;8.00;5.72;;;;;;;9.89;89.03;100051.66;5047136;28;20264;-66
2022/11/11 11:47:46;;;;;;;8.90;5.97;;;;;;;9.84;88.75;100039.63;5051050;28;20064;-67
2022/11/11 11:50:46;;;;;;;9.63;7.05;;;;;;;9.90;88.38;100043.03;5048108;28;20026;-66
2022/11/11 11:53:34;;;;;;;6.88;6.00;;;;;;;9.80;89.14;100030.19;5051767;28;20041;-66
2022/11/11 11:56:14;;;;;;;8.25;6.40;;;;;;;9.70;89.21;100022.59;5053384;28;20037;-67
2022/11/11 11:59:04;;;;;;;8.27;5.93;;;;;;;9.62;89.47;100020.09;5049685;28;20029;-66
2022/11/11 12:01:37;;;;;;;8.23;6.68;;;;;;;9.69;89.82;100032.09;5048455;28;20055;-67
2022/11/11 12:04:21;;;;;;;8.93;6.93;;;;;;;9.76;90.23;100032.84;5048356;28;20318;-67
2022/11/11 12:06:53;;;;;;;9.43;6.95;;;;;;;9.63;90.78;100021.81;5048547;28;20347;-67
2022/11/11 12:09:36;;;;;;;11.38;7.18;;;;;;;9.72;90.02;100019.13;5051466;28;20036;-67
2022/11/11 12:12:08;;;;;;;9.98;7.20;;;;;;;9.72;90.44;100026.88;5049307;28;20317;-67
2022/11/11 12:14:52;;;;;;;10.90;6.85;;;;;;;9.76;90.15;100022.50;5040881;28;20092;-67
2022/11/11 12:17:29;;;;;;;8.82;6.90;;;;;;;9.71;90.95;100017.41;5026185;28;20026;-67
2022/11/11 12:20:08;;;;;;;10.98;7.45;;;;;;;9.59;90.80;99996.84;5029048;28;20048;-66
2022/11/11 12:22:59;;;;;;;10.25;7.07;;;;;;;9.76;90.63;100015.63;5026382;28;20033;-66
2022/11/11 12:26:01;;;;;;;11.48;6.97;;;;;;;9.82;90.94;100015.53;5026352;28;20239;-67
2022/11/11 12:28:39;;;;;;;10.50;6.93;;;;;;;9.90;90.33;100019.75;5044405;28;20025;-67
2022/11/11 12:31:14;;;;;;;9.25;7.38;;;;;;;9.80;91.13;100024.19;5026042;28;20033;-67
2022/11/11 12:34:07;;;;;;;10.35;7.22;;;;;;;9.84;90.74;100011.19;5045833;28;20044;-66
2022/11/11 12:36:42;;;;;;;9.18;7.03;;;;;;;9.86;90.75;100013.75;5036837;28;20028;-66
2022/11/11 12:39:38;;;;;;;8.90;7.25;;;;;;;9.83;90.78;100006.03;5045820;28;20025;-68
2022/11/11 12:42:25;;;;;;;10.73;7.32;;;;;;;9.67;91.04;99995.03;5031131;28;20026;-67
2022/11/11 12:45:17;;;;;;;9.43;6.75;;;;;;;9.62;91.61;99992.50;5038635;28;20288;-67
2022/11/11 12:48:19;;;;;;;9.73;7.30;;;;;;;9.60;91.71;100007.16;5038197;28;20029;-67
2022/11/11 12:51:10;;;;;;;9.38;7.28;;;;;;;9.70;91.56;100013.09;5055768;28;20071;-67
2022/11/11 12:53:58;;;;;;;11.68;7.50;;;;;;;9.72;91.41;100010.47;5048383;28;20037;-67
2022/11/11 12:56:41;;;;;;;11.32;8.38;;;;;;;9.66;91.74;99995.91;5035923;28;20033;-67